sensor_id;sensor_type;location;lat;lon;timestamp;P1;durP1;ratioP1;P2;durP2;ratioP2
26634;SDS011;14490;54.208;37.686;2023-05-07T00:00:04;5.43;;;2.65;;
26634;SDS011;14490;54.208;37.686;2023-05-07T00:02:36;5.00;;;2.88;;
26634;SDS011;14490;54.208;37.686;2023-05-07T00:05:04;7.85;;;2.78;;
26634;SDS011;14490;54.208;37.686;2023-05-07T00:07:31;11.45;;;3.40;;
26634;SDS011;14490;54.208;37.686;2023-05-07T00:09:58;9.07;;;2.20;;
26634;SDS011;14490;54.208;37.686;2023-05-07T00:12:26;7.30;;;3.00;;
26634;SDS011;14490;54.208;37.686;2023-05-07T00:14:53;5.43;;;3.20;;
26634;SDS011;14490;54.208;37.686;2023-05-07T00:17:20;3.53;;;2.63;;
26634;SDS011;14490;54.208;37.686;2023-05-07T00:19:48;7.97;;;2.40;;
26634;SDS011;14490;54.208;37.686;2023-05-07T00:22:15;3.53;;;2.65;;
26634;SDS011;14490;54.208;37.686;2023-05-07T00:24:42;7.50;;;2.97;;
26634;SDS011;14490;54.208;37.686;2023-05-07T00:27:10;5.22;;;3.08;;
26634;SDS011;14490;54.208;37.686;2023-05-07T00:29:37;8.75;;;3.03;;
26634;SDS011;14490;54.208;37.686;2023-05-07T00:32:04;6.15;;;3.38;;
26634;SDS011;14490;54.208;37.686;2023-05-07T00:34:31;7.35;;;2.67;;
26634;SDS011;14490;54.208;37.686;2023-05-07T00:37:00;4.90;;;2.53;;
26634;SDS011;14490;54.208;37.686;2023-05-07T00:39:28;3.58;;;2.80;;
26634;SDS011;14490;54.208;37.686;2023-05-07T00:41:55;7.68;;;3.30;;
26634;SDS011;14490;54.208;37.686;2023-05-07T00:44:22;4.07;;;3.03;;
26634;SDS011;14490;54.208;37.686;2023-05-07T00:46:49;7.28;;;2.78;;
26634;SDS011;14490;54.208;37.686;2023-05-07T00:49:16;4.13;;;2.88;;
26634;SDS011;14490;54.208;37.686;2023-05-07T00:51:43;5.57;;;2.58;;
26634;SDS011;14490;54.208;37.686;2023-05-07T00:54:12;4.65;;;2.90;;
26634;SDS011;14490;54.208;37.686;2023-05-07T00:56:40;7.55;;;2.92;;
26634;SDS011;14490;54.208;37.686;2023-05-07T00:59:07;4.80;;;3.03;;
26634;SDS011;14490;54.208;37.686;2023-05-07T01:01:34;6.40;;;2.90;;
26634;SDS011;14490;54.208;37.686;2023-05-07T01:04:02;4.72;;;3.20;;
26634;SDS011;14490;54.208;37.686;2023-05-07T01:06:29;4.38;;;3.22;;
26634;SDS011;14490;54.208;37.686;2023-05-07T01:08:57;6.60;;;3.42;;
26634;SDS011;14490;54.208;37.686;2023-05-07T01:11:26;5.80;;;3.05;;
26634;SDS011;14490;54.208;37.686;2023-05-07T01:13:53;5.80;;;2.47;;
26634;SDS011;14490;54.208;37.686;2023-05-07T01:16:20;6.03;;;2.65;;
26634;SDS011;14490;54.208;37.686;2023-05-07T01:18:47;4.45;;;2.78;;
26634;SDS011;14490;54.208;37.686;2023-05-07T01:21:15;6.28;;;3.38;;
26634;SDS011;14490;54.208;37.686;2023-05-07T01:23:44;6.43;;;3.08;;
26634;SDS011;14490;54.208;37.686;2023-05-07T01:26:12;7.82;;;2.95;;
26634;SDS011;14490;54.208;37.686;2023-05-07T01:28:44;8.73;;;3.10;;
26634;SDS011;14490;54.208;37.686;2023-05-07T01:31:11;3.97;;;3.13;;
26634;SDS011;14490;54.208;37.686;2023-05-07T01:33:39;5.25;;;3.47;;
26634;SDS011;14490;54.208;37.686;2023-05-07T01:36:07;6.35;;;3.42;;
26634;SDS011;14490;54.208;37.686;2023-05-07T01:38:36;9.00;;;3.20;;
26634;SDS011;14490;54.208;37.686;2023-05-07T01:41:05;9.20;;;3.50;;
26634;SDS011;14490;54.208;37.686;2023-05-07T01:43:33;10.23;;;4.40;;
26634;SDS011;14490;54.208;37.686;2023-05-07T01:46:00;5.45;;;2.70;;
26634;SDS011;14490;54.208;37.686;2023-05-07T01:48:28;8.00;;;3.75;;
26634;SDS011;14490;54.208;37.686;2023-05-07T01:50:55;5.80;;;2.80;;
26634;SDS011;14490;54.208;37.686;2023-05-07T01:53:22;5.40;;;3.08;;
26634;SDS011;14490;54.208;37.686;2023-05-07T01:55:49;11.30;;;3.40;;
26634;SDS011;14490;54.208;37.686;2023-05-07T01:58:18;14.02;;;3.70;;
26634;SDS011;14490;54.208;37.686;2023-05-07T02:00:45;9.73;;;3.85;;
26634;SDS011;14490;54.208;37.686;2023-05-07T02:03:12;8.50;;;2.90;;
26634;SDS011;14490;54.208;37.686;2023-05-07T02:05:39;10.88;;;4.32;;
26634;SDS011;14490;54.208;37.686;2023-05-07T02:08:11;7.35;;;3.53;;
26634;SDS011;14490;54.208;37.686;2023-05-07T02:10:38;6.68;;;3.05;;
26634;SDS011;14490;54.208;37.686;2023-05-07T02:13:06;5.90;;;3.50;;
26634;SDS011;14490;54.208;37.686;2023-05-07T02:15:34;5.93;;;2.80;;
26634;SDS011;14490;54.208;37.686;2023-05-07T02:18:02;5.97;;;2.90;;
26634;SDS011;14490;54.208;37.686;2023-05-07T02:20:30;5.40;;;2.97;;
26634;SDS011;14490;54.208;37.686;2023-05-07T02:22:57;4.93;;;3.00;;
26634;SDS011;14490;54.208;37.686;2023-05-07T02:25:24;4.18;;;2.83;;
26634;SDS011;14490;54.208;37.686;2023-05-07T02:27:51;5.90;;;3.60;;
26634;SDS011;14490;54.208;37.686;2023-05-07T02:30:18;6.88;;;2.63;;
26634;SDS011;14490;54.208;37.686;2023-05-07T02:32:47;6.63;;;2.72;;
26634;SDS011;14490;54.208;37.686;2023-05-07T02:35:15;4.35;;;2.80;;
26634;SDS011;14490;54.208;37.686;2023-05-07T02:37:42;6.93;;;2.47;;
26634;SDS011;14490;54.208;37.686;2023-05-07T02:40:10;4.57;;;2.90;;
26634;SDS011;14490;54.208;37.686;2023-05-07T02:42:38;8.07;;;3.03;;
26634;SDS011;14490;54.208;37.686;2023-05-07T02:45:05;4.45;;;2.85;;
26634;SDS011;14490;54.208;37.686;2023-05-07T02:47:33;7.63;;;2.80;;
26634;SDS011;14490;54.208;37.686;2023-05-07T02:50:02;4.15;;;2.70;;
26634;SDS011;14490;54.208;37.686;2023-05-07T02:52:30;5.70;;;2.42;;
26634;SDS011;14490;54.208;37.686;2023-05-07T02:54:58;5.15;;;3.13;;
26634;SDS011;14490;54.208;37.686;2023-05-07T02:57:25;5.40;;;2.58;;
26634;SDS011;14490;54.208;37.686;2023-05-07T02:59:52;9.00;;;2.90;;
26634;SDS011;14490;54.208;37.686;2023-05-07T03:02:19;4.30;;;3.15;;
26634;SDS011;14490;54.208;37.686;2023-05-07T03:04:46;4.05;;;2.72;;
26634;SDS011;14490;54.208;37.686;2023-05-07T03:07:15;5.63;;;3.15;;
26634;SDS011;14490;54.208;37.686;2023-05-07T03:09:42;8.48;;;2.80;;
26634;SDS011;14490;54.208;37.686;2023-05-07T03:12:09;8.23;;;3.42;;
26634;SDS011;14490;54.208;37.686;2023-05-07T03:14:36;7.68;;;3.15;;
26634;SDS011;14490;54.208;37.686;2023-05-07T03:17:04;8.25;;;3.45;;
26634;SDS011;14490;54.208;37.686;2023-05-07T03:19:31;5.55;;;3.15;;
26634;SDS011;14490;54.208;37.686;2023-05-07T03:21:58;6.93;;;3.08;;
26634;SDS011;14490;54.208;37.686;2023-05-07T03:24:26;8.48;;;2.65;;
26634;SDS011;14490;54.208;37.686;2023-05-07T03:26:53;7.93;;;3.22;;
26634;SDS011;14490;54.208;37.686;2023-05-07T03:29:20;5.72;;;2.83;;
26634;SDS011;14490;54.208;37.686;2023-05-07T03:31:47;3.95;;;2.30;;
26634;SDS011;14490;54.208;37.686;2023-05-07T03:34:15;2.58;;;1.90;;
26634;SDS011;14490;54.208;37.686;2023-05-07T03:36:47;4.50;;;2.63;;
26634;SDS011;14490;54.208;37.686;2023-05-07T03:39:14;3.58;;;2.28;;
26634;SDS011;14490;54.208;37.686;2023-05-07T03:41:42;6.97;;;2.55;;
26634;SDS011;14490;54.208;37.686;2023-05-07T03:44:09;5.18;;;2.38;;
26634;SDS011;14490;54.208;37.686;2023-05-07T03:46:37;7.60;;;2.72;;
26634;SDS011;14490;54.208;37.686;2023-05-07T03:49:04;2.67;;;2.20;;
26634;SDS011;14490;54.208;37.686;2023-05-07T03:51:31;3.95;;;2.50;;
26634;SDS011;14490;54.208;37.686;2023-05-07T03:53:58;5.38;;;2.53;;
26634;SDS011;14490;54.208;37.686;2023-05-07T03:56:26;3.92;;;2.22;;
26634;SDS011;14490;54.208;37.686;2023-05-07T03:58:54;6.38;;;2.10;;
26634;SDS011;14490;54.208;37.686;2023-05-07T04:01:21;3.17;;;2.30;;
26634;SDS011;14490;54.208;37.686;2023-05-07T04:03:48;2.83;;;2.13;;
26634;SDS011;14490;54.208;37.686;2023-05-07T04:06:15;3.38;;;2.35;;
26634;SDS011;14490;54.208;37.686;2023-05-07T04:08:43;7.82;;;2.85;;
26634;SDS011;14490;54.208;37.686;2023-05-07T04:11:10;3.67;;;2.40;;
26634;SDS011;14490;54.208;37.686;2023-05-07T04:13:37;5.93;;;2.40;;
26634;SDS011;14490;54.208;37.686;2023-05-07T04:16:06;3.72;;;2.30;;
26634;SDS011;14490;54.208;37.686;2023-05-07T04:18:33;3.78;;;2.47;;
26634;SDS011;14490;54.208;37.686;2023-05-07T04:21:00;5.00;;;2.88;;
26634;SDS011;14490;54.208;37.686;2023-05-07T04:23:27;3.38;;;2.58;;
26634;SDS011;14490;54.208;37.686;2023-05-07T04:25:54;6.93;;;2.90;;
26634;SDS011;14490;54.208;37.686;2023-05-07T04:28:22;4.75;;;2.80;;
26634;SDS011;14490;54.208;37.686;2023-05-07T04:30:49;4.68;;;2.83;;
26634;SDS011;14490;54.208;37.686;2023-05-07T04:33:18;5.20;;;2.45;;
26634;SDS011;14490;54.208;37.686;2023-05-07T04:35:45;5.72;;;2.90;;
26634;SDS011;14490;54.208;37.686;2023-05-07T04:38:12;2.70;;;1.83;;
26634;SDS011;14490;54.208;37.686;2023-05-07T04:40:39;5.10;;;1.50;;
26634;SDS011;14490;54.208;37.686;2023-05-07T04:43:06;5.10;;;1.75;;
26634;SDS011;14490;54.208;37.686;2023-05-07T04:45:34;2.33;;;1.60;;
26634;SDS011;14490;54.208;37.686;2023-05-07T04:48:01;1.85;;;1.00;;
26634;SDS011;14490;54.208;37.686;2023-05-07T04:50:30;1.48;;;1.10;;
26634;SDS011;14490;54.208;37.686;2023-05-07T04:52:57;5.25;;;1.00;;
26634;SDS011;14490;54.208;37.686;2023-05-07T04:55:24;1.75;;;1.20;;
26634;SDS011;14490;54.208;37.686;2023-05-07T04:57:51;2.10;;;1.20;;
26634;SDS011;14490;54.208;37.686;2023-05-07T05:00:19;2.40;;;0.98;;
26634;SDS011;14490;54.208;37.686;2023-05-07T05:02:46;2.03;;;1.13;;
26634;SDS011;14490;54.208;37.686;2023-05-07T05:05:13;2.40;;;1.15;;
26634;SDS011;14490;54.208;37.686;2023-05-07T05:07:42;2.15;;;1.45;;
26634;SDS011;14490;54.208;37.686;2023-05-07T05:10:12;2.05;;;1.10;;
26634;SDS011;14490;54.208;37.686;2023-05-07T05:12:59;1.95;;;1.23;;
26634;SDS011;14490;54.208;37.686;2023-05-07T05:15:26;1.92;;;1.23;;
26634;SDS011;14490;54.208;37.686;2023-05-07T05:17:53;2.42;;;1.08;;
26634;SDS011;14490;54.208;37.686;2023-05-07T05:20:20;1.70;;;1.15;;
26634;SDS011;14490;54.208;37.686;2023-05-07T05:22:49;2.95;;;1.20;;
26634;SDS011;14490;54.208;37.686;2023-05-07T05:25:16;1.33;;;0.90;;
26634;SDS011;14490;54.208;37.686;2023-05-07T05:27:43;3.05;;;1.00;;
26634;SDS011;14490;54.208;37.686;2023-05-07T05:30:11;1.60;;;0.88;;
26634;SDS011;14490;54.208;37.686;2023-05-07T05:32:39;0.95;;;0.65;;
26634;SDS011;14490;54.208;37.686;2023-05-07T05:35:06;2.10;;;0.75;;
26634;SDS011;14490;54.208;37.686;2023-05-07T05:37:34;1.83;;;0.75;;
26634;SDS011;14490;54.208;37.686;2023-05-07T05:40:03;1.05;;;0.60;;
26634;SDS011;14490;54.208;37.686;2023-05-07T05:42:30;1.15;;;0.60;;
26634;SDS011;14490;54.208;37.686;2023-05-07T05:44:59;0.90;;;0.80;;
26634;SDS011;14490;54.208;37.686;2023-05-07T05:47:26;0.65;;;0.57;;
26634;SDS011;14490;54.208;37.686;2023-05-07T05:49:53;0.98;;;0.57;;
26634;SDS011;14490;54.208;37.686;2023-05-07T05:52:21;0.73;;;0.50;;
26634;SDS011;14490;54.208;37.686;2023-05-07T05:54:49;1.23;;;0.65;;
26634;SDS011;14490;54.208;37.686;2023-05-07T05:57:18;0.70;;;0.57;;
26634;SDS011;14490;54.208;37.686;2023-05-07T05:59:45;1.50;;;0.60;;
26634;SDS011;14490;54.208;37.686;2023-05-07T06:02:13;1.65;;;0.40;;
26634;SDS011;14490;54.208;37.686;2023-05-07T06:04:40;3.13;;;0.60;;
26634;SDS011;14490;54.208;37.686;2023-05-07T06:07:07;1.02;;;0.52;;
26634;SDS011;14490;54.208;37.686;2023-05-07T06:09:35;2.85;;;0.50;;
26634;SDS011;14490;54.208;37.686;2023-05-07T06:12:02;1.42;;;0.50;;
26634;SDS011;14490;54.208;37.686;2023-05-07T06:14:31;0.60;;;0.50;;
26634;SDS011;14490;54.208;37.686;2023-05-07T06:16:58;2.05;;;0.60;;
26634;SDS011;14490;54.208;37.686;2023-05-07T06:19:28;0.70;;;0.43;;
26634;SDS011;14490;54.208;37.686;2023-05-07T06:21:56;1.33;;;0.60;;
26634;SDS011;14490;54.208;37.686;2023-05-07T06:24:23;2.22;;;0.50;;
26634;SDS011;14490;54.208;37.686;2023-05-07T06:26:51;0.60;;;0.40;;
26634;SDS011;14490;54.208;37.686;2023-05-07T06:29:18;1.23;;;0.55;;
26634;SDS011;14490;54.208;37.686;2023-05-07T06:31:46;0.68;;;0.45;;
26634;SDS011;14490;54.208;37.686;2023-05-07T06:34:13;0.40;;;0.40;;
26634;SDS011;14490;54.208;37.686;2023-05-07T06:36:42;2.33;;;0.47;;
26634;SDS011;14490;54.208;37.686;2023-05-07T06:39:10;1.05;;;0.50;;
26634;SDS011;14490;54.208;37.686;2023-05-07T06:41:40;1.23;;;0.35;;
26634;SDS011;14490;54.208;37.686;2023-05-07T06:44:07;2.58;;;0.60;;
26634;SDS011;14490;54.208;37.686;2023-05-07T06:46:34;1.40;;;0.68;;
26634;SDS011;14490;54.208;37.686;2023-05-07T06:49:03;2.08;;;0.68;;
26634;SDS011;14490;54.208;37.686;2023-05-07T06:51:30;0.95;;;0.60;;
26634;SDS011;14490;54.208;37.686;2023-05-07T06:53:57;1.35;;;0.70;;
26634;SDS011;14490;54.208;37.686;2023-05-07T06:56:25;1.40;;;0.50;;
26634;SDS011;14490;54.208;37.686;2023-05-07T06:58:52;3.85;;;0.57;;
26634;SDS011;14490;54.208;37.686;2023-05-07T07:01:22;0.90;;;0.50;;
26634;SDS011;14490;54.208;37.686;2023-05-07T07:03:49;0.40;;;0.40;;
26634;SDS011;14490;54.208;37.686;2023-05-07T07:06:18;0.90;;;0.50;;
26634;SDS011;14490;54.208;37.686;2023-05-07T07:08:45;2.47;;;0.47;;
26634;SDS011;14490;54.208;37.686;2023-05-07T07:11:12;1.83;;;0.57;;
26634;SDS011;14490;54.208;37.686;2023-05-07T07:13:39;4.75;;;0.70;;
26634;SDS011;14490;54.208;37.686;2023-05-07T07:16:10;1.75;;;0.70;;
26634;SDS011;14490;54.208;37.686;2023-05-07T07:18:38;0.95;;;0.85;;
26634;SDS011;14490;54.208;37.686;2023-05-07T07:21:05;4.18;;;0.85;;
26634;SDS011;14490;54.208;37.686;2023-05-07T07:23:33;1.10;;;0.88;;
26634;SDS011;14490;54.208;37.686;2023-05-07T07:26:31;4.05;;;0.80;;
26634;SDS011;14490;54.208;37.686;2023-05-07T07:31:54;1.27;;;0.80;;
26634;SDS011;14490;54.208;37.686;2023-05-07T07:34:58;0.60;;;0.60;;
26634;SDS011;14490;54.208;37.686;2023-05-07T07:37:40;1.15;;;0.60;;
26634;SDS011;14490;54.208;37.686;2023-05-07T07:40:12;3.08;;;1.10;;
26634;SDS011;14490;54.208;37.686;2023-05-07T07:42:41;1.50;;;1.02;;
26634;SDS011;14490;54.208;37.686;2023-05-07T07:45:08;1.50;;;0.80;;
26634;SDS011;14490;54.208;37.686;2023-05-07T07:47:39;1.25;;;0.68;;
26634;SDS011;14490;54.208;37.686;2023-05-07T07:50:06;1.20;;;0.40;;
26634;SDS011;14490;54.208;37.686;2023-05-07T07:52:40;0.80;;;0.43;;
26634;SDS011;14490;54.208;37.686;2023-05-07T07:55:07;0.60;;;0.40;;
26634;SDS011;14490;54.208;37.686;2023-05-07T07:57:41;1.52;;;0.60;;
26634;SDS011;14490;54.208;37.686;2023-05-07T08:00:11;1.23;;;0.40;;
26634;SDS011;14490;54.208;37.686;2023-05-07T08:02:39;1.98;;;0.50;;
26634;SDS011;14490;54.208;37.686;2023-05-07T08:05:07;0.52;;;0.40;;
26634;SDS011;14490;54.208;37.686;2023-05-07T08:07:34;1.10;;;0.60;;
26634;SDS011;14490;54.208;37.686;2023-05-07T08:10:02;2.67;;;0.90;;
26634;SDS011;14490;54.208;37.686;2023-05-07T08:12:30;2.45;;;0.70;;
26634;SDS011;14490;54.208;37.686;2023-05-07T08:15:04;0.80;;;0.57;;
26634;SDS011;14490;54.208;37.686;2023-05-07T08:17:55;1.73;;;0.70;;
26634;SDS011;14490;54.208;37.686;2023-05-07T08:20:25;2.45;;;0.70;;
26634;SDS011;14490;54.208;37.686;2023-05-07T08:22:52;2.83;;;0.80;;
26634;SDS011;14490;54.208;37.686;2023-05-07T08:25:19;0.82;;;0.73;;
26634;SDS011;14490;54.208;37.686;2023-05-07T08:27:46;0.70;;;0.50;;
26634;SDS011;14490;54.208;37.686;2023-05-07T08:30:15;0.63;;;0.60;;
26634;SDS011;14490;54.208;37.686;2023-05-07T08:32:44;0.82;;;0.60;;
26634;SDS011;14490;54.208;37.686;2023-05-07T08:35:12;1.13;;;0.80;;
26634;SDS011;14490;54.208;37.686;2023-05-07T08:37:39;2.50;;;0.68;;
26634;SDS011;14490;54.208;37.686;2023-05-07T08:40:07;1.98;;;0.70;;
26634;SDS011;14490;54.208;37.686;2023-05-07T08:42:35;0.70;;;0.70;;
26634;SDS011;14490;54.208;37.686;2023-05-07T08:45:03;1.38;;;0.82;;
26634;SDS011;14490;54.208;37.686;2023-05-07T08:47:35;1.25;;;0.68;;
26634;SDS011;14490;54.208;37.686;2023-05-07T08:50:07;2.92;;;0.82;;
26634;SDS011;14490;54.208;37.686;2023-05-07T08:52:34;0.85;;;0.50;;
26634;SDS011;14490;54.208;37.686;2023-05-07T08:55:02;2.80;;;1.00;;
26634;SDS011;14490;54.208;37.686;2023-05-07T08:57:29;1.05;;;0.65;;
26634;SDS011;14490;54.208;37.686;2023-05-07T08:59:58;1.45;;;0.70;;
26634;SDS011;14490;54.208;37.686;2023-05-07T09:02:26;0.50;;;0.45;;
26634;SDS011;14490;54.208;37.686;2023-05-07T09:04:57;0.60;;;0.47;;
26634;SDS011;14490;54.208;37.686;2023-05-07T09:07:24;1.02;;;0.68;;
26634;SDS011;14490;54.208;37.686;2023-05-07T09:09:54;2.45;;;0.70;;
26634;SDS011;14490;54.208;37.686;2023-05-07T09:12:22;0.93;;;0.73;;
26634;SDS011;14490;54.208;37.686;2023-05-07T09:14:49;3.38;;;0.90;;
26634;SDS011;14490;54.208;37.686;2023-05-07T09:17:16;4.47;;;1.50;;
26634;SDS011;14490;54.208;37.686;2023-05-07T09:19:44;1.40;;;0.73;;
26634;SDS011;14490;54.208;37.686;2023-05-07T09:22:17;2.42;;;0.70;;
26634;SDS011;14490;54.208;37.686;2023-05-07T09:27:13;5.68;;;1.00;;
26634;SDS011;14490;54.208;37.686;2023-05-07T09:29:41;1.02;;;0.77;;
26634;SDS011;14490;54.208;37.686;2023-05-07T09:32:08;1.00;;;0.80;;
26634;SDS011;14490;54.208;37.686;2023-05-07T09:34:35;1.17;;;0.90;;
26634;SDS011;14490;54.208;37.686;2023-05-07T09:37:03;3.03;;;0.98;;
26634;SDS011;14490;54.208;37.686;2023-05-07T09:39:39;2.63;;;1.30;;
26634;SDS011;14490;54.208;37.686;2023-05-07T09:42:07;1.63;;;0.80;;
26634;SDS011;14490;54.208;37.686;2023-05-07T09:44:35;1.17;;;0.77;;
26634;SDS011;14490;54.208;37.686;2023-05-07T09:47:04;1.73;;;1.05;;
26634;SDS011;14490;54.208;37.686;2023-05-07T09:49:33;1.77;;;1.42;;
26634;SDS011;14490;54.208;37.686;2023-05-07T09:52:01;4.82;;;0.98;;
26634;SDS011;14490;54.208;37.686;2023-05-07T09:54:31;1.33;;;1.02;;
26634;SDS011;14490;54.208;37.686;2023-05-07T09:57:05;1.10;;;0.60;;
26634;SDS011;14490;54.208;37.686;2023-05-07T09:59:34;1.60;;;0.70;;
26634;SDS011;14490;54.208;37.686;2023-05-07T10:02:01;1.63;;;0.73;;
26634;SDS011;14490;54.208;37.686;2023-05-07T10:04:31;1.05;;;0.70;;
26634;SDS011;14490;54.208;37.686;2023-05-07T10:06:59;2.80;;;1.08;;
26634;SDS011;14490;54.208;37.686;2023-05-07T10:09:29;1.05;;;0.80;;
26634;SDS011;14490;54.208;37.686;2023-05-07T10:11:56;1.98;;;0.80;;
26634;SDS011;14490;54.208;37.686;2023-05-07T10:14:25;1.02;;;0.57;;
26634;SDS011;14490;54.208;37.686;2023-05-07T10:16:57;1.30;;;0.70;;
26634;SDS011;14490;54.208;37.686;2023-05-07T10:19:24;1.48;;;0.73;;
26634;SDS011;14490;54.208;37.686;2023-05-07T10:21:54;2.63;;;0.90;;
26634;SDS011;14490;54.208;37.686;2023-05-07T10:24:25;1.48;;;0.70;;
26634;SDS011;14490;54.208;37.686;2023-05-07T10:26:53;2.25;;;1.17;;
26634;SDS011;14490;54.208;37.686;2023-05-07T10:29:23;3.22;;;1.30;;
26634;SDS011;14490;54.208;37.686;2023-05-07T10:31:58;3.22;;;0.70;;
26634;SDS011;14490;54.208;37.686;2023-05-07T10:34:28;1.30;;;0.77;;
26634;SDS011;14490;54.208;37.686;2023-05-07T10:36:56;0.90;;;0.75;;
26634;SDS011;14490;54.208;37.686;2023-05-07T10:39:23;1.00;;;0.77;;
26634;SDS011;14490;54.208;37.686;2023-05-07T10:41:51;1.58;;;0.80;;
26634;SDS011;14490;54.208;37.686;2023-05-07T10:44:28;2.15;;;0.77;;
26634;SDS011;14490;54.208;37.686;2023-05-07T10:58:56;1.05;;;0.95;;
26634;SDS011;14490;54.208;37.686;2023-05-07T11:01:52;3.25;;;0.80;;
26634;SDS011;14490;54.208;37.686;2023-05-07T11:04:20;1.42;;;1.00;;
26634;SDS011;14490;54.208;37.686;2023-05-07T11:09:56;2.03;;;1.17;;
26634;SDS011;14490;54.208;37.686;2023-05-07T11:15:40;2.92;;;0.80;;
26634;SDS011;14490;54.208;37.686;2023-05-07T11:18:10;1.00;;;0.73;;
26634;SDS011;14490;54.208;37.686;2023-05-07T11:20:47;2.35;;;0.80;;
26634;SDS011;14490;54.208;37.686;2023-05-07T11:26:25;2.38;;;1.10;;
26634;SDS011;14490;54.208;37.686;2023-05-07T11:28:52;1.77;;;1.00;;
26634;SDS011;14490;54.208;37.686;2023-05-07T11:31:20;1.33;;;0.90;;
26634;SDS011;14490;54.208;37.686;2023-05-07T11:33:51;3.92;;;1.05;;
26634;SDS011;14490;54.208;37.686;2023-05-07T11:36:19;1.77;;;0.80;;
26634;SDS011;14490;54.208;37.686;2023-05-07T11:38:46;0.88;;;0.70;;
26634;SDS011;14490;54.208;37.686;2023-05-07T11:41:14;1.23;;;0.70;;
26634;SDS011;14490;54.208;37.686;2023-05-07T11:43:55;1.80;;;0.70;;
26634;SDS011;14490;54.208;37.686;2023-05-07T11:46:23;2.17;;;0.80;;
26634;SDS011;14490;54.208;37.686;2023-05-07T11:48:52;2.38;;;0.93;;
26634;SDS011;14490;54.208;37.686;2023-05-07T11:51:19;1.00;;;0.90;;
26634;SDS011;14490;54.208;37.686;2023-05-07T11:53:47;1.98;;;0.90;;
26634;SDS011;14490;54.208;37.686;2023-05-07T11:56:16;1.00;;;0.80;;
26634;SDS011;14490;54.208;37.686;2023-05-07T11:58:44;1.40;;;0.98;;
26634;SDS011;14490;54.208;37.686;2023-05-07T12:01:12;2.83;;;0.82;;
26634;SDS011;14490;54.208;37.686;2023-05-07T12:03:41;1.90;;;0.82;;
26634;SDS011;14490;54.208;37.686;2023-05-07T12:06:11;2.78;;;0.73;;
26634;SDS011;14490;54.208;37.686;2023-05-07T12:08:39;2.97;;;0.75;;
26634;SDS011;14490;54.208;37.686;2023-05-07T12:11:07;2.63;;;0.90;;
26634;SDS011;14490;54.208;37.686;2023-05-07T12:13:36;2.00;;;0.88;;
26634;SDS011;14490;54.208;37.686;2023-05-07T12:16:05;4.28;;;0.70;;
26634;SDS011;14490;54.208;37.686;2023-05-07T12:18:34;1.45;;;0.75;;
26634;SDS011;14490;54.208;37.686;2023-05-07T12:21:01;1.48;;;0.75;;
26634;SDS011;14490;54.208;37.686;2023-05-07T12:23:30;2.85;;;0.85;;
26634;SDS011;14490;54.208;37.686;2023-05-07T12:25:57;1.13;;;0.73;;
26634;SDS011;14490;54.208;37.686;2023-05-07T12:28:25;0.93;;;0.60;;
26634;SDS011;14490;54.208;37.686;2023-05-07T12:30:53;1.30;;;0.98;;
26634;SDS011;14490;54.208;37.686;2023-05-07T12:33:23;1.25;;;0.90;;
26634;SDS011;14490;54.208;37.686;2023-05-07T12:35:52;0.70;;;0.70;;
26634;SDS011;14490;54.208;37.686;2023-05-07T12:38:20;1.45;;;0.90;;
26634;SDS011;14490;54.208;37.686;2023-05-07T12:40:49;3.35;;;0.95;;
26634;SDS011;14490;54.208;37.686;2023-05-07T12:43:17;1.27;;;0.88;;
26634;SDS011;14490;54.208;37.686;2023-05-07T12:45:45;1.70;;;0.63;;
26634;SDS011;14490;54.208;37.686;2023-05-07T12:48:13;1.50;;;0.93;;
26634;SDS011;14490;54.208;37.686;2023-05-07T12:50:43;2.90;;;1.20;;
26634;SDS011;14490;54.208;37.686;2023-05-07T12:53:11;1.52;;;0.80;;
26634;SDS011;14490;54.208;37.686;2023-05-07T12:55:40;5.28;;;1.30;;
26634;SDS011;14490;54.208;37.686;2023-05-07T12:58:15;2.92;;;0.90;;
26634;SDS011;14490;54.208;37.686;2023-05-07T13:00:43;1.27;;;1.17;;
26634;SDS011;14490;54.208;37.686;2023-05-07T13:03:11;3.67;;;1.10;;
26634;SDS011;14490;54.208;37.686;2023-05-07T13:05:38;1.80;;;1.00;;
26634;SDS011;14490;54.208;37.686;2023-05-07T13:08:05;1.08;;;0.95;;
26634;SDS011;14490;54.208;37.686;2023-05-07T13:10:34;2.00;;;0.90;;
26634;SDS011;14490;54.208;37.686;2023-05-07T13:13:02;1.45;;;0.90;;
26634;SDS011;14490;54.208;37.686;2023-05-07T13:15:31;2.53;;;0.90;;
26634;SDS011;14490;54.208;37.686;2023-05-07T13:17:58;1.52;;;0.80;;
26634;SDS011;14490;54.208;37.686;2023-05-07T13:20:25;1.70;;;0.90;;
26634;SDS011;14490;54.208;37.686;2023-05-07T13:22:52;4.25;;;1.00;;
26634;SDS011;14490;54.208;37.686;2023-05-07T13:25:19;3.13;;;1.15;;
26634;SDS011;14490;54.208;37.686;2023-05-07T13:27:46;1.30;;;1.17;;
26634;SDS011;14490;54.208;37.686;2023-05-07T13:30:15;1.27;;;0.75;;
26634;SDS011;14490;54.208;37.686;2023-05-07T13:32:43;1.15;;;0.85;;
26634;SDS011;14490;54.208;37.686;2023-05-07T13:35:14;3.17;;;0.90;;
26634;SDS011;14490;54.208;37.686;2023-05-07T13:37:41;1.00;;;0.90;;
26634;SDS011;14490;54.208;37.686;2023-05-07T13:40:09;3.10;;;1.77;;
26634;SDS011;14490;54.208;37.686;2023-05-07T13:42:36;2.55;;;0.82;;
26634;SDS011;14490;54.208;37.686;2023-05-07T13:45:04;1.20;;;0.90;;
26634;SDS011;14490;54.208;37.686;2023-05-07T13:47:31;4.32;;;1.08;;
26634;SDS011;14490;54.208;37.686;2023-05-07T13:50:00;1.88;;;0.68;;
26634;SDS011;14490;54.208;37.686;2023-05-07T13:52:27;0.80;;;0.68;;
26634;SDS011;14490;54.208;37.686;2023-05-07T13:54:57;1.60;;;0.90;;
26634;SDS011;14490;54.208;37.686;2023-05-07T13:57:24;2.25;;;0.80;;
26634;SDS011;14490;54.208;37.686;2023-05-07T13:59:51;1.02;;;0.88;;
26634;SDS011;14490;54.208;37.686;2023-05-07T14:02:18;2.42;;;1.05;;
26634;SDS011;14490;54.208;37.686;2023-05-07T14:04:45;3.95;;;1.20;;
26634;SDS011;14490;54.208;37.686;2023-05-07T14:07:14;3.13;;;0.90;;
26634;SDS011;14490;54.208;37.686;2023-05-07T14:09:41;4.00;;;1.10;;
26634;SDS011;14490;54.208;37.686;2023-05-07T14:12:08;6.78;;;1.10;;
26634;SDS011;14490;54.208;37.686;2023-05-07T14:14:35;5.00;;;1.20;;
26634;SDS011;14490;54.208;37.686;2023-05-07T14:17:02;2.90;;;1.05;;
26634;SDS011;14490;54.208;37.686;2023-05-07T14:19:29;2.15;;;1.10;;
26634;SDS011;14490;54.208;37.686;2023-05-07T14:21:59;1.80;;;1.10;;
26634;SDS011;14490;54.208;37.686;2023-05-07T14:24:29;2.17;;;1.17;;
26634;SDS011;14490;54.208;37.686;2023-05-07T14:26:56;4.28;;;1.40;;
26634;SDS011;14490;54.208;37.686;2023-05-07T14:29:23;2.47;;;1.17;;
26634;SDS011;14490;54.208;37.686;2023-05-07T14:31:50;2.22;;;0.98;;
26634;SDS011;14490;54.208;37.686;2023-05-07T14:34:17;2.95;;;1.52;;
26634;SDS011;14490;54.208;37.686;2023-05-07T14:36:45;2.00;;;1.02;;
26634;SDS011;14490;54.208;37.686;2023-05-07T14:39:15;1.95;;;1.42;;
26634;SDS011;14490;54.208;37.686;2023-05-07T14:41:44;1.90;;;1.08;;
26634;SDS011;14490;54.208;37.686;2023-05-07T14:44:11;1.90;;;1.30;;
26634;SDS011;14490;54.208;37.686;2023-05-07T14:46:41;2.47;;;1.10;;
26634;SDS011;14490;54.208;37.686;2023-05-07T14:49:08;3.25;;;1.30;;
26634;SDS011;14490;54.208;37.686;2023-05-07T14:51:47;2.20;;;1.27;;
26634;SDS011;14490;54.208;37.686;2023-05-07T14:54:15;1.20;;;0.85;;
26634;SDS011;14490;54.208;37.686;2023-05-07T14:56:43;8.18;;;1.60;;
26634;SDS011;14490;54.208;37.686;2023-05-07T14:59:10;2.03;;;1.00;;
26634;SDS011;14490;54.208;37.686;2023-05-07T15:01:38;1.70;;;1.00;;
26634;SDS011;14490;54.208;37.686;2023-05-07T15:04:10;1.65;;;1.20;;
26634;SDS011;14490;54.208;37.686;2023-05-07T15:06:37;2.35;;;1.08;;